Jones, AL (36749)

6:58 AM CDT on November 01, 2014 (GMT -0500)
Kingston Pines | Change Station
CLOSE
Current Station
Personal Weather Station
Location: Prattville, AL
Elevation: 538 ft
Nearby Weather Stations

Elev 538 ft 32.55 °N, 86.55 °W | Updated 57 seconds ago

Clear
Clear
34.2 °F
Feels Like 34 °F
N
2.2
Wind Variable Wind from West

Today
High -- | Low -- °F
--% Chance of Precip.
Yesterday
High -- | Low -- °F
Precip. -- in
7:04 AM 5:56 PM
Waxing Gibbous, 66% visible
Pressure 30.17 in
Visibility 10.0 miles
Clouds Clear
Windchill 34 °F
Dew Point 24 °F
Humidity 67%
Rainfall 0.00 in
Snow Depth Not available.
UV 0 out of 12
Pollen 1.70 out of 12
Air Quality Not available.
Flu Activity Not available.
METAR KMXF 011058Z AUTO 30010G16KT 10SM CLR 03/M03 A3016 RMK AO2 SLP216 T00341030

More Conditions Fewer Conditions

Pressure 30.17 in
Visibility 10.0 miles
Clouds Clear
Windchill 34 °F
Dew Point 24 °F
Humidity 67%
Rainfall 0.00 in
Snow Depth Not available.
UV 0 out of 12
Pollen 1.70 out of 12
Air Quality Not available.
Flu Activity Not available.
METAR KMXF 011058Z AUTO 30010G16KT 10SM CLR 03/M03 A3016 RMK AO2 SLP216 T00341030

More Conditions Fewer Conditions

10-Day Weather Forecast

Almanac

Astronomy

Nov. 01, 2014 Rise Set
Actual Time
Civil Twilight
Nautical Twilight
Astronomical Twilight
Moon
Length of Visible Light
Length of Day
Tomorrow will be .
, % of the Moon is Illuminated

Today's Extremes

State Highs State Lows

Community

WunderPhotos

Upload Photos

1,766,903 photos uploaded!

WunderBlogs® & News

Nearby

Air Quality

  Air Quality AQ Index Pollutant
Not available.

Snow Depth

Station Depth Elevation

Earthquake Activity

City Distance Mag. Time & Date
Minimum magnitude displayed is 2.5.

Coastal Water Temperatures

Place Temperature

Nearby Weather Stations